Nearby METAR Reports

 

CXKE - Kemptville, Ontario, Canada
Distance from station: ESE 39km
Updated: 15/06/2019 23:00

 Wind from W
Wind: W 6 km/h
Temperature: 15°C
Dew Point: 14°C
Humidity: 94%
2019/06/16 03:00 CXKE 160300Z AUTO 26003KT 15/14 RMK AO1 SLP101 T01470140 53018
CYOW - Ottawa Intl, Ontario, Canada
Distance from station: NE 43km
Updated: 15/06/2019 23:00
Few Clouds
Few Clouds
 Wind from WSW
Wind: WSW 11 km/h
Temperature: 13°C
Dew Point: 13°C
Humidity: 100%
Barometer: 1010.2 hPa
Clouds: Few Clouds
Visibility: 24 km
Cloud details: Few Clouds 366 m
2019/06/16 03:00 CYOW 160300Z 25006KT 15SM FEW012 13/13 A2983 RMK SC1 SC TR SLP103 DENSITY ALT 400FT
 
CYND - Gatineau Airport, Quebec, Canada
Distance from station: NE 64km
Updated: 15/06/2019 21:00
NOT Current
Mostly Cloudy
Mostly Cloudy
 Wind from W
Wind: W 15 km/h
Temperature: 15°C
Dew Point: 15°C
Humidity: 100%
Barometer: 1008.1 hPa
Clouds: Mostly Cloudy
Visibility: 24 km
Cloud details: Mostly Cloudy 396 m
Mostly Cloudy 2743 m
2019/06/16 01:00 CYND 160100Z 26008KT 15SM BKN013 BKN090 15/15 A2977 RMK SC6AC1 AC TR LAST STFD OBS/NEXT 161100 UTC SLP082 DENSITY ALT 500FT
CYGK - Kingston, Ontario, CA
Distance from station: S 80km
Updated: 15/06/2019 23:00
Overcast
Overcast
 Wind from WSW
Wind: WSW 13 km/h
Temperature: 14°C
Dew Point: 14°C
Humidity: 100%
Barometer: 1011.2 hPa
Clouds: Overcast
Visibility: 16 km
Cloud details: Partly Cloudy 305 m
Mostly Cloudy 1280 m
Overcast 3658 m
2019/06/16 03:00 CYGK 160300Z 24007KT 10SM SCT010 BKN042 OVC120 14/14 A2986 RMK SF3SC3AC2 LAST STFD OBS/NXT 161000Z SLP112 DENSITY ALT 400FT